createdAt,value
2019-02-11T00:01:34.234Z,100277.04
2019-02-11T00:06:48.859Z,100294.73
2019-02-11T00:11:54.559Z,100315.52
2019-02-11T00:17:04.959Z,100317.69
2019-02-11T00:22:17.211Z,100331.75
2019-02-11T00:27:27.649Z,100346.84
2019-02-11T00:32:33.506Z,100358.96
2019-02-11T00:37:43.818Z,100368.08
2019-02-11T00:42:50.186Z,100384.18
2019-02-11T00:47:57.392Z,100398.34
2019-02-11T00:53:07.024Z,100399.87
2019-02-11T00:58:14.323Z,100410.77
2019-02-11T01:03:23.034Z,100436.78
2019-02-11T01:08:34.567Z,100449.11
2019-02-11T01:13:41.528Z,100463.05
2019-02-11T01:18:51.139Z,100461.31
2019-02-11T01:24:01.326Z,100461.19
2019-02-11T01:29:20.007Z,100471.30
2019-02-11T01:34:30.015Z,100482.21
2019-02-11T01:39:38.321Z,100483.24
2019-02-11T01:44:47.209Z,100490.90
2019-02-11T01:49:53.200Z,100500.31
2019-02-11T01:55:00.777Z,100505.42
2019-02-11T02:00:10.274Z,100508.95
2019-02-11T02:05:20.020Z,100522.88
2019-02-11T02:10:31.415Z,100524.31
2019-02-11T02:15:41.765Z,100523.94
2019-02-11T02:20:50.954Z,100539.41
2019-02-11T02:25:58.435Z,100543.73
2019-02-11T02:31:07.201Z,100555.59
2019-02-11T02:36:17.915Z,100558.31
2019-02-11T02:41:26.009Z,100565.83
2019-02-11T02:46:36.586Z,100581.63
2019-02-11T02:51:44.383Z,100598.54
2019-02-11T02:56:52.645Z,100576.91
2019-02-11T03:02:03.234Z,100600.03
2019-02-11T03:07:11.863Z,100619.92
2019-02-11T03:12:18.349Z,100632.02
2019-02-11T03:17:24.372Z,100642.27
2019-02-11T03:22:33.453Z,100651.75
2019-02-11T03:27:39.722Z,100658.30
2019-02-11T03:32:47.797Z,100670.94
2019-02-11T03:37:54.652Z,100682.05
2019-02-11T03:43:02.797Z,100680.27
2019-02-11T03:48:14.349Z,100691.41
2019-02-11T03:53:22.218Z,100697.50
2019-02-11T03:58:31.519Z,100705.80
2019-02-11T04:03:40.249Z,100725.88
2019-02-11T04:08:49.137Z,100743.20
2019-02-11T04:13:57.471Z,100750.42
2019-02-11T04:19:04.240Z,100765.34
2019-02-11T04:24:12.928Z,100775.41
2019-02-11T04:29:21.697Z,100794.05
2019-02-11T04:34:29.147Z,100799.62
2019-02-11T04:39:41.819Z,100810.50
2019-02-11T04:44:49.043Z,100821.71
2019-02-11T04:49:57.923Z,100819.50
2019-02-11T04:55:07.184Z,100827.44
2019-02-11T05:00:15.522Z,100830.16
2019-02-11T05:05:24.304Z,100849.25
2019-02-11T05:10:33.818Z,100858.38
2019-02-11T05:15:40.308Z,100867.37
2019-02-11T05:20:51.207Z,100880.23
2019-02-11T05:26:00.928Z,100889.30
2019-02-11T05:31:08.275Z,100897.58
2019-02-11T05:36:15.345Z,100904.06
2019-02-11T05:41:20.389Z,100904.91
2019-02-11T05:46:30.138Z,100919.05
2019-02-11T05:51:40.495Z,100933.70
2019-02-11T05:56:47.840Z,100943.73
2019-02-11T06:01:56.776Z,100952.44
2019-02-11T06:07:06.674Z,100963.31
2019-02-11T06:12:13.394Z,100984.91
2019-02-11T06:17:26.755Z,100985.37
2019-02-11T06:22:38.124Z,101001.42
2019-02-11T06:27:44.040Z,101013.53
2019-02-11T06:32:53.792Z,101026.09
2019-02-11T06:38:01.966Z,101036.86
2019-02-11T06:43:09.058Z,101045.05
2019-02-11T06:48:19.177Z,101064.98
2019-02-11T06:53:25.617Z,101076.70
2019-02-11T06:58:34.683Z,101091.03
2019-02-11T07:03:45.536Z,101095.41
2019-02-11T07:08:56.291Z,101118.33
2019-02-11T07:14:05.257Z,101120.95
2019-02-11T07:19:16.036Z,101126.58
2019-02-11T07:24:23.076Z,101122.72
2019-02-11T07:29:31.737Z,101128.31
2019-02-11T07:34:38.176Z,101141.64
2019-02-11T07:39:47.775Z,101162.75
2019-02-11T07:44:57.639Z,101171.75
2019-02-11T07:50:07.294Z,101174.34
2019-02-11T07:55:19.143Z,101189.86
2019-02-11T08:00:28.284Z,101194.57
2019-02-11T08:05:35.199Z,101205.34
2019-02-11T08:10:42.689Z,101214.39
2019-02-11T08:15:53.114Z,101222.54
2019-02-11T08:21:02.101Z,101225.95
2019-02-11T08:26:10.970Z,101241.02
2019-02-11T08:31:19.796Z,101252.58
2019-02-11T08:36:27.130Z,101274.51
2019-02-11T08:41:34.621Z,101274.82
2019-02-11T08:46:41.859Z,101293.39
2019-02-11T08:51:49.897Z,101287.22
2019-02-11T08:56:57.477Z,101299.11
2019-02-11T09:02:08.389Z,101307.63
2019-02-11T09:07:18.817Z,101328.52
2019-02-11T09:12:28.898Z,101339.77
2019-02-11T09:17:41.153Z,101345.79
2019-02-11T09:22:49.604Z,101359.73
2019-02-11T09:27:59.785Z,101380.13
2019-02-11T09:33:08.614Z,101393.17
2019-02-11T09:38:15.073Z,101406.79
2019-02-11T09:43:22.384Z,101413.55
2019-02-11T09:48:31.073Z,101438.58
2019-02-11T09:53:43.278Z,101456.42
2019-02-11T09:58:55.152Z,101465.81
2019-02-11T10:04:03.178Z,101475.22
2019-02-11T10:09:11.412Z,101490.38
2019-02-11T10:14:20.111Z,101512.44
2019-02-11T10:19:27.326Z,101509.84
2019-02-11T10:24:36.525Z,101523.08
2019-02-11T10:29:42.622Z,101529.09
2019-02-11T10:34:51.311Z,101532.09
2019-02-11T10:39:58.832Z,101546.57
2019-02-11T10:45:06.009Z,101555.17
2019-02-11T10:50:12.522Z,101561.63
2019-02-11T10:55:20.983Z,101582.98
2019-02-11T11:00:29.034Z,101584.20
2019-02-11T11:05:38.077Z,101588.92
2019-02-11T11:10:47.411Z,101603.51
2019-02-11T11:15:53.519Z,101612.09
2019-02-11T11:21:03.744Z,101627.24
2019-02-11T11:26:15.525Z,101640.52
2019-02-11T11:31:27.606Z,101645.02
2019-02-11T11:36:33.565Z,101651.24
2019-02-11T11:41:41.589Z,101653.89
2019-02-11T11:46:49.932Z,101650.13
2019-02-11T11:51:59.629Z,101714.59
2019-02-11T11:57:10.241Z,101728.06
2019-02-11T12:02:18.152Z,101734.98
2019-02-11T12:07:24.079Z,101749.89
2019-02-11T12:12:32.170Z,101758.39
2019-02-11T12:17:41.644Z,101772.10
2019-02-11T12:22:53.140Z,101776.06
2019-02-11T12:27:59.800Z,101781.89
2019-02-11T12:33:05.749Z,101797.26
2019-02-11T12:38:15.392Z,101803.97
2019-02-11T12:43:24.380Z,101814.32
2019-02-11T12:48:34.052Z,101819.10
2019-02-11T12:53:42.877Z,101833.27
2019-02-11T12:58:51.563Z,101846.01
2019-02-11T13:04:02.328Z,101856.16
2019-02-11T13:09:11.560Z,101847.88
2019-02-11T13:14:18.430Z,101853.60
2019-02-11T13:19:25.793Z,101864.77
2019-02-11T13:24:33.995Z,101884.02
2019-02-11T13:29:42.662Z,101895.56
2019-02-11T13:34:51.697Z,101915.89
2019-02-11T13:39:59.808Z,101920.71
2019-02-11T13:45:09.793Z,101919.14
2019-02-11T13:50:20.609Z,101937.20
2019-02-11T13:55:30.390Z,101968.30
2019-02-11T14:00:36.171Z,101961.55
2019-02-11T14:05:43.447Z,101956.66
2019-02-11T14:10:51.872Z,101956.66
2019-02-11T14:15:57.801Z,101967.35
2019-02-11T14:21:08.005Z,101978.21
2019-02-11T14:26:19.270Z,101979.11
2019-02-11T14:31:30.675Z,101989.57
2019-02-11T14:36:35.242Z,102011.27
2019-02-11T14:41:42.483Z,102033.48
2019-02-11T14:46:48.271Z,102025.80
2019-02-11T14:51:54.689Z,102051.80
2019-02-11T14:57:01.277Z,102057.59
2019-02-11T15:02:10.465Z,102080.39
2019-02-11T15:07:18.038Z,102098.80
2019-02-11T15:12:26.080Z,102115.95
2019-02-11T15:17:33.869Z,102128.61
2019-02-11T15:22:42.793Z,102141.93
2019-02-11T15:27:48.729Z,102151.88
2019-02-11T15:32:56.721Z,102153.52
2019-02-11T15:38:09.894Z,102174.80
2019-02-11T15:43:19.584Z,102189.35
2019-02-11T15:48:26.924Z,102204.50
2019-02-11T15:53:32.888Z,102224.70
2019-02-11T15:58:41.635Z,102246.97
2019-02-11T16:03:51.189Z,102257.00
2019-02-11T16:09:04.620Z,102271.83
2019-02-11T16:14:10.116Z,102276.62
2019-02-11T16:19:21.139Z,102288.83
2019-02-11T16:24:31.811Z,102301.71
2019-02-11T16:29:42.468Z,102318.00
2019-02-11T16:34:49.825Z,102347.20
2019-02-11T16:39:59.424Z,102357.94
2019-02-11T16:45:09.118Z,102358.03
2019-02-11T16:50:17.031Z,102374.21
2019-02-11T16:55:23.508Z,102380.84
2019-02-11T17:00:31.410Z,102398.33
2019-02-11T17:05:41.666Z,102409.23
2019-02-11T17:10:48.534Z,102413.16
2019-02-11T17:15:58.212Z,102412.76
2019-02-11T17:21:04.739Z,102419.30
2019-02-11T17:26:12.647Z,102423.20
2019-02-11T17:31:19.337Z,102426.27
2019-02-11T17:36:26.786Z,102417.13
2019-02-11T17:41:33.247Z,102423.66
2019-02-11T17:46:39.730Z,102435.80
2019-02-11T17:51:45.430Z,102456.67
2019-02-11T17:56:51.201Z,102458.84
2019-02-11T18:01:57.703Z,102478.78
2019-02-11T18:07:04.068Z,102488.30
2019-02-11T18:12:13.672Z,102506.08
2019-02-11T18:17:21.663Z,102506.91
2019-02-11T18:22:34.434Z,102508.14
2019-02-11T18:27:42.204Z,102540.25
2019-02-11T18:32:47.379Z,102533.69
2019-02-11T18:37:55.554Z,102523.23
2019-02-11T18:43:04.508Z,102513.23
2019-02-11T18:48:12.693Z,102529.23
2019-02-11T18:53:22.374Z,102523.98
2019-02-11T18:58:30.592Z,102558.59
2019-02-11T19:03:37.941Z,102563.73
2019-02-11T19:08:46.673Z,102596.20
2019-02-11T19:13:55.928Z,102590.05
2019-02-11T19:19:03.337Z,102581.77
2019-02-11T19:24:09.305Z,102598.63
2019-02-11T19:29:18.885Z,102590.84
2019-02-11T19:34:27.222Z,102607.32
2019-02-11T19:39:33.055Z,102617.66
2019-02-11T19:44:42.491Z,102627.63
2019-02-11T19:49:52.084Z,102633.66
2019-02-11T19:54:56.961Z,102653.80
2019-02-11T20:00:06.081Z,102658.64
2019-02-11T20:05:14.620Z,102658.92
2019-02-11T20:10:22.180Z,102660.22
2019-02-11T20:15:31.433Z,102665.29
2019-02-11T20:21:39.670Z,102663.49
2019-02-11T20:26:49.346Z,102670.41
2019-02-11T20:31:59.361Z,102674.57
2019-02-11T20:37:06.741Z,102678.69
2019-02-11T20:42:16.265Z,102682.05
2019-02-11T20:47:27.012Z,102697.03
2019-02-11T20:52:35.959Z,102701.13
2019-02-11T20:57:47.114Z,102706.70
2019-02-11T21:02:53.309Z,102720.02
2019-02-11T21:08:02.018Z,102729.30
2019-02-11T21:13:10.177Z,102733.46
2019-02-11T21:18:20.612Z,102735.07
2019-02-11T21:23:30.399Z,102742.33
2019-02-11T21:28:42.212Z,102737.41
2019-02-11T21:33:49.488Z,102739.92
2019-02-11T21:38:55.765Z,102743.16
2019-02-11T21:44:03.273Z,102759.10
2019-02-11T21:49:10.731Z,102765.02
2019-02-11T21:54:18.668Z,102770.14
2019-02-11T21:59:26.709Z,102777.50
2019-02-11T22:04:35.623Z,102787.05
2019-02-11T22:09:45.250Z,102792.09
2019-02-11T22:14:52.997Z,102802.31
2019-02-11T22:20:01.375Z,102806.48
2019-02-11T22:25:07.738Z,102796.27
2019-02-11T22:30:19.552Z,102800.00
2019-02-11T22:35:30.782Z,102805.98
2019-02-11T22:40:40.483Z,102816.20
2019-02-11T22:45:51.660Z,102817.88
2019-02-11T22:51:02.272Z,102819.44
2019-02-11T22:56:14.426Z,102817.14
2019-02-11T23:01:25.985Z,102824.84
2019-02-11T23:06:35.743Z,102819.02
2019-02-11T23:11:45.741Z,102819.94
2019-02-11T23:16:55.322Z,102827.31
2019-02-11T23:22:04.945Z,102830.95
2019-02-11T23:27:14.983Z,102830.80
2019-02-11T23:32:26.392Z,102836.72
2019-02-11T23:37:35.212Z,102843.34
2019-02-11T23:42:51.073Z,102848.95
2019-02-11T23:48:03.716Z,102872.23
2019-02-11T23:53:12.167Z,102875.50
2019-02-11T23:58:18.144Z,102885.37
